Terminal Aerodrome Forecast
Issued by NWS

Home | Current Version | Previous Version | Graphics & Text | Print | Product List | Glossary On
Versions: 1 2 3 4 5 6 7 8 9 10 11 12 13 14 15
000
FTUS43 KFGF 250530
TAFBJI
TAF
KBJI 250530Z 2506/2606 VRB03KT 3SM -SN OVC025
      TEMPO 2506/2508 1SM -SN BKN012
     FM250800 VRB05KT P6SM OVC025
      TEMPO 2508/2511 3SM -SN BKN015
     FM251600 26011KT P6SM BKN020
     FM251800 26014G23KT P6SM BKN020
     FM252300 26013KT P6SM BKN020=

USA.gov is the U.S. government's official web portal to all federal, state and local government web resources and services.